sensor_id;sensor_type;location;lat;lon;timestamp;P1;durP1;ratioP1;P2;durP2;ratioP2
65230;SDS011;51813;40.666;16.602;2022-09-09T00:06:50;7.45;;;5.10;;
65230;SDS011;51813;40.666;16.602;2022-09-09T00:15:19;5.97;;;4.95;;
65230;SDS011;51813;40.666;16.602;2022-09-09T00:23:11;8.20;;;4.72;;
65230;SDS011;51813;40.666;16.602;2022-09-09T00:28:13;8.95;;;5.75;;
65230;SDS011;51813;40.666;16.602;2022-09-09T00:30:49;8.73;;;5.63;;
65230;SDS011;51813;40.666;16.602;2022-09-09T00:33:16;6.35;;;5.43;;
65230;SDS011;51813;40.666;16.602;2022-09-09T00:35:47;8.07;;;5.80;;
65230;SDS011;51813;40.666;16.602;2022-09-09T00:38:36;7.95;;;5.72;;
65230;SDS011;51813;40.666;16.602;2022-09-09T00:46:26;7.05;;;5.10;;
65230;SDS011;51813;40.666;16.602;2022-09-09T00:57:33;8.23;;;5.75;;
65230;SDS011;51813;40.666;16.602;2022-09-09T01:03:19;8.93;;;6.45;;
65230;SDS011;51813;40.666;16.602;2022-09-09T01:11:49;6.18;;;4.63;;
65230;SDS011;51813;40.666;16.602;2022-09-09T01:17:01;7.57;;;5.40;;
65230;SDS011;51813;40.666;16.602;2022-09-09T01:27:34;7.53;;;5.30;;
65230;SDS011;51813;40.666;16.602;2022-09-09T01:30:01;5.97;;;4.80;;
65230;SDS011;51813;40.666;16.602;2022-09-09T01:32:37;6.95;;;4.63;;
65230;SDS011;51813;40.666;16.602;2022-09-09T01:35:04;7.05;;;4.72;;
65230;SDS011;51813;40.666;16.602;2022-09-09T01:37:38;5.70;;;4.78;;
65230;SDS011;51813;40.666;16.602;2022-09-09T01:40:04;6.47;;;4.78;;
65230;SDS011;51813;40.666;16.602;2022-09-09T01:42:30;5.95;;;4.85;;
65230;SDS011;51813;40.666;16.602;2022-09-09T01:44:55;7.47;;;5.07;;
65230;SDS011;51813;40.666;16.602;2022-09-09T01:47:21;6.35;;;4.90;;
65230;SDS011;51813;40.666;16.602;2022-09-09T01:49:47;7.30;;;5.30;;
65230;SDS011;51813;40.666;16.602;2022-09-09T01:52:12;5.78;;;4.90;;
65230;SDS011;51813;40.666;16.602;2022-09-09T01:54:38;8.23;;;5.10;;
65230;SDS011;51813;40.666;16.602;2022-09-09T02:02:30;5.25;;;4.75;;
65230;SDS011;51813;40.666;16.602;2022-09-09T02:07:48;7.38;;;5.05;;
65230;SDS011;51813;40.666;16.602;2022-09-09T02:10:26;7.03;;;5.35;;
65230;SDS011;51813;40.666;16.602;2022-09-09T02:13:10;8.20;;;5.10;;
65230;SDS011;51813;40.666;16.602;2022-09-09T02:18:17;6.90;;;4.88;;
65230;SDS011;51813;40.666;16.602;2022-09-09T02:20:51;5.10;;;4.25;;
65230;SDS011;51813;40.666;16.602;2022-09-09T02:23:18;6.57;;;4.63;;
65230;SDS011;51813;40.666;16.602;2022-09-09T02:25:45;6.88;;;5.10;;
65230;SDS011;51813;40.666;16.602;2022-09-09T02:28:13;8.02;;;5.40;;
65230;SDS011;51813;40.666;16.602;2022-09-09T02:30:41;8.85;;;5.57;;
65230;SDS011;51813;40.666;16.602;2022-09-09T02:33:11;7.35;;;5.32;;
65230;SDS011;51813;40.666;16.602;2022-09-09T02:35:39;8.80;;;5.95;;
65230;SDS011;51813;40.666;16.602;2022-09-09T02:38:07;6.05;;;4.80;;
65230;SDS011;51813;40.666;16.602;2022-09-09T02:40:37;9.10;;;6.05;;
65230;SDS011;51813;40.666;16.602;2022-09-09T02:43:03;6.18;;;5.10;;
65230;SDS011;51813;40.666;16.602;2022-09-09T02:45:32;7.53;;;5.10;;
65230;SDS011;51813;40.666;16.602;2022-09-09T02:48:17;5.70;;;4.47;;
65230;SDS011;51813;40.666;16.602;2022-09-09T02:50:57;10.77;;;6.47;;
65230;SDS011;51813;40.666;16.602;2022-09-09T02:56:05;9.55;;;6.47;;
65230;SDS011;51813;40.666;16.602;2022-09-09T02:58:38;11.05;;;6.30;;
65230;SDS011;51813;40.666;16.602;2022-09-09T03:01:04;12.57;;;7.53;;
65230;SDS011;51813;40.666;16.602;2022-09-09T03:03:30;9.45;;;6.30;;
65230;SDS011;51813;40.666;16.602;2022-09-09T03:05:56;10.93;;;6.53;;
65230;SDS011;51813;40.666;16.602;2022-09-09T03:08:22;11.27;;;6.72;;
65230;SDS011;51813;40.666;16.602;2022-09-09T03:10:48;8.23;;;5.60;;
65230;SDS011;51813;40.666;16.602;2022-09-09T03:13:14;10.52;;;6.55;;
65230;SDS011;51813;40.666;16.602;2022-09-09T03:15:40;10.27;;;6.07;;
65230;SDS011;51813;40.666;16.602;2022-09-09T03:18:06;10.52;;;6.43;;
65230;SDS011;51813;40.666;16.602;2022-09-09T03:20:31;10.55;;;6.72;;
65230;SDS011;51813;40.666;16.602;2022-09-09T03:22:58;10.48;;;6.68;;
65230;SDS011;51813;40.666;16.602;2022-09-09T03:25:25;11.38;;;6.13;;
65230;SDS011;51813;40.666;16.602;2022-09-09T03:27:51;10.15;;;6.80;;
65230;SDS011;51813;40.666;16.602;2022-09-09T03:30:20;9.15;;;6.72;;
65230;SDS011;51813;40.666;16.602;2022-09-09T03:32:49;10.18;;;6.70;;
65230;SDS011;51813;40.666;16.602;2022-09-09T03:35:15;10.48;;;6.45;;
65230;SDS011;51813;40.666;16.602;2022-09-09T03:37:42;9.82;;;6.28;;
65230;SDS011;51813;40.666;16.602;2022-09-09T03:40:08;10.25;;;6.90;;
65230;SDS011;51813;40.666;16.602;2022-09-09T03:42:37;9.57;;;5.78;;
65230;SDS011;51813;40.666;16.602;2022-09-09T03:45:04;10.88;;;6.35;;
65230;SDS011;51813;40.666;16.602;2022-09-09T03:50:00;11.23;;;6.63;;
65230;SDS011;51813;40.666;16.602;2022-09-09T03:52:25;11.57;;;6.60;;
65230;SDS011;51813;40.666;16.602;2022-09-09T03:54:52;12.52;;;6.80;;
65230;SDS011;51813;40.666;16.602;2022-09-09T03:57:19;9.95;;;6.40;;
65230;SDS011;51813;40.666;16.602;2022-09-09T03:59:45;8.73;;;5.78;;
65230;SDS011;51813;40.666;16.602;2022-09-09T04:02:10;9.52;;;6.15;;
65230;SDS011;51813;40.666;16.602;2022-09-09T04:04:36;7.82;;;6.05;;
65230;SDS011;51813;40.666;16.602;2022-09-09T04:07:02;9.07;;;6.82;;
65230;SDS011;51813;40.666;16.602;2022-09-09T04:09:31;7.93;;;5.88;;
65230;SDS011;51813;40.666;16.602;2022-09-09T04:11:56;7.50;;;5.85;;
65230;SDS011;51813;40.666;16.602;2022-09-09T04:14:22;10.63;;;6.15;;
65230;SDS011;51813;40.666;16.602;2022-09-09T04:16:48;10.82;;;6.70;;
65230;SDS011;51813;40.666;16.602;2022-09-09T04:19:14;11.00;;;6.40;;
65230;SDS011;51813;40.666;16.602;2022-09-09T04:21:40;8.88;;;5.82;;
65230;SDS011;51813;40.666;16.602;2022-09-09T04:24:07;11.57;;;6.18;;
65230;SDS011;51813;40.666;16.602;2022-09-09T04:26:33;10.52;;;6.25;;
65230;SDS011;51813;40.666;16.602;2022-09-09T04:29:00;13.98;;;6.35;;
65230;SDS011;51813;40.666;16.602;2022-09-09T04:31:25;9.77;;;6.50;;
65230;SDS011;51813;40.666;16.602;2022-09-09T04:33:51;8.30;;;6.13;;
65230;SDS011;51813;40.666;16.602;2022-09-09T04:36:18;8.43;;;5.63;;
65230;SDS011;51813;40.666;16.602;2022-09-09T04:38:44;10.38;;;6.20;;
65230;SDS011;51813;40.666;16.602;2022-09-09T04:41:11;11.43;;;6.50;;
65230;SDS011;51813;40.666;16.602;2022-09-09T04:43:37;11.63;;;6.13;;
65230;SDS011;51813;40.666;16.602;2022-09-09T04:46:03;12.05;;;6.40;;
65230;SDS011;51813;40.666;16.602;2022-09-09T04:48:29;10.98;;;6.43;;
65230;SDS011;51813;40.666;16.602;2022-09-09T04:51:00;8.52;;;6.45;;
65230;SDS011;51813;40.666;16.602;2022-09-09T04:53:28;8.50;;;5.72;;
65230;SDS011;51813;40.666;16.602;2022-09-09T04:58:41;9.77;;;6.53;;
65230;SDS011;51813;40.666;16.602;2022-09-09T05:01:14;7.90;;;6.13;;
65230;SDS011;51813;40.666;16.602;2022-09-09T05:03:42;10.52;;;6.57;;
65230;SDS011;51813;40.666;16.602;2022-09-09T05:06:11;10.13;;;6.32;;
65230;SDS011;51813;40.666;16.602;2022-09-09T05:08:39;9.48;;;6.15;;
65230;SDS011;51813;40.666;16.602;2022-09-09T05:13:41;10.60;;;6.35;;
65230;SDS011;51813;40.666;16.602;2022-09-09T05:16:07;9.27;;;6.50;;
65230;SDS011;51813;40.666;16.602;2022-09-09T05:18:36;10.05;;;6.30;;
65230;SDS011;51813;40.666;16.602;2022-09-09T05:21:02;9.52;;;6.22;;
65230;SDS011;51813;40.666;16.602;2022-09-09T05:23:28;13.43;;;6.30;;
65230;SDS011;51813;40.666;16.602;2022-09-09T05:25:57;10.73;;;6.57;;
65230;SDS011;51813;40.666;16.602;2022-09-09T05:28:26;10.80;;;6.80;;
65230;SDS011;51813;40.666;16.602;2022-09-09T05:30:59;10.40;;;6.50;;
65230;SDS011;51813;40.666;16.602;2022-09-09T05:33:28;11.35;;;6.95;;
65230;SDS011;51813;40.666;16.602;2022-09-09T05:38:28;8.45;;;5.93;;
65230;SDS011;51813;40.666;16.602;2022-09-09T05:40:55;10.50;;;6.82;;
65230;SDS011;51813;40.666;16.602;2022-09-09T05:43:22;10.15;;;6.60;;
65230;SDS011;51813;40.666;16.602;2022-09-09T05:45:48;11.57;;;6.50;;
65230;SDS011;51813;40.666;16.602;2022-09-09T05:48:31;13.95;;;7.05;;
65230;SDS011;51813;40.666;16.602;2022-09-09T05:50:58;9.85;;;6.43;;
65230;SDS011;51813;40.666;16.602;2022-09-09T05:53:24;12.77;;;7.70;;
65230;SDS011;51813;40.666;16.602;2022-09-09T05:56:01;12.23;;;6.55;;
65230;SDS011;51813;40.666;16.602;2022-09-09T05:58:34;11.23;;;6.80;;
65230;SDS011;51813;40.666;16.602;2022-09-09T06:01:00;13.98;;;7.03;;
65230;SDS011;51813;40.666;16.602;2022-09-09T06:03:30;12.70;;;7.32;;
65230;SDS011;51813;40.666;16.602;2022-09-09T06:05:57;10.73;;;7.10;;
65230;SDS011;51813;40.666;16.602;2022-09-09T06:08:30;12.05;;;6.82;;
65230;SDS011;51813;40.666;16.602;2022-09-09T06:11:00;11.23;;;6.97;;
65230;SDS011;51813;40.666;16.602;2022-09-09T06:13:28;9.90;;;6.35;;
65230;SDS011;51813;40.666;16.602;2022-09-09T06:15:54;13.50;;;7.20;;
65230;SDS011;51813;40.666;16.602;2022-09-09T06:18:20;10.80;;;7.88;;
65230;SDS011;51813;40.666;16.602;2022-09-09T06:23:31;12.70;;;7.28;;
65230;SDS011;51813;40.666;16.602;2022-09-09T06:26:05;12.25;;;6.90;;
65230;SDS011;51813;40.666;16.602;2022-09-09T06:28:38;9.48;;;6.90;;
65230;SDS011;51813;40.666;16.602;2022-09-09T06:31:08;10.70;;;6.68;;
65230;SDS011;51813;40.666;16.602;2022-09-09T06:33:36;12.85;;;7.05;;
65230;SDS011;51813;40.666;16.602;2022-09-09T06:36:06;12.10;;;7.20;;
65230;SDS011;51813;40.666;16.602;2022-09-09T06:38:37;11.23;;;7.05;;
65230;SDS011;51813;40.666;16.602;2022-09-09T06:41:03;12.18;;;7.80;;
65230;SDS011;51813;40.666;16.602;2022-09-09T06:43:30;13.75;;;7.30;;
65230;SDS011;51813;40.666;16.602;2022-09-09T06:48:24;11.57;;;7.60;;
65230;SDS011;51813;40.666;16.602;2022-09-09T06:53:36;10.40;;;7.10;;
65230;SDS011;51813;40.666;16.602;2022-09-09T06:58:35;11.90;;;7.22;;
65230;SDS011;51813;40.666;16.602;2022-09-09T07:01:11;11.35;;;7.30;;
65230;SDS011;51813;40.666;16.602;2022-09-09T07:03:41;13.48;;;6.90;;
65230;SDS011;51813;40.666;16.602;2022-09-09T07:06:13;11.57;;;7.25;;
65230;SDS011;51813;40.666;16.602;2022-09-09T07:08:42;13.43;;;6.72;;
65230;SDS011;51813;40.666;16.602;2022-09-09T07:11:08;9.05;;;6.53;;
65230;SDS011;51813;40.666;16.602;2022-09-09T07:13:34;12.68;;;6.90;;
65230;SDS011;51813;40.666;16.602;2022-09-09T07:16:06;11.93;;;6.60;;
65230;SDS011;51813;40.666;16.602;2022-09-09T07:18:34;13.40;;;7.35;;
65230;SDS011;51813;40.666;16.602;2022-09-09T07:21:01;13.32;;;6.78;;
65230;SDS011;51813;40.666;16.602;2022-09-09T07:23:28;12.50;;;7.07;;
65230;SDS011;51813;40.666;16.602;2022-09-09T07:25:54;11.88;;;7.32;;
65230;SDS011;51813;40.666;16.602;2022-09-09T07:28:20;13.32;;;6.80;;
65230;SDS011;51813;40.666;16.602;2022-09-09T07:30:56;14.95;;;7.10;;
65230;SDS011;51813;40.666;16.602;2022-09-09T07:33:23;12.80;;;7.07;;
65230;SDS011;51813;40.666;16.602;2022-09-09T07:35:50;16.70;;;7.10;;
65230;SDS011;51813;40.666;16.602;2022-09-09T07:38:16;12.57;;;6.60;;
65230;SDS011;51813;40.666;16.602;2022-09-09T07:40:43;14.88;;;7.40;;
65230;SDS011;51813;40.666;16.602;2022-09-09T07:43:09;10.77;;;6.72;;
65230;SDS011;51813;40.666;16.602;2022-09-09T07:45:36;14.90;;;6.78;;
65230;SDS011;51813;40.666;16.602;2022-09-09T07:48:02;14.27;;;6.70;;
65230;SDS011;51813;40.666;16.602;2022-09-09T07:50:28;13.90;;;6.90;;
65230;SDS011;51813;40.666;16.602;2022-09-09T07:52:54;11.27;;;6.53;;
65230;SDS011;51813;40.666;16.602;2022-09-09T07:55:20;18.10;;;6.40;;
65230;SDS011;51813;40.666;16.602;2022-09-09T07:57:50;11.60;;;6.28;;
65230;SDS011;51813;40.666;16.602;2022-09-09T08:00:16;12.15;;;6.10;;
65230;SDS011;51813;40.666;16.602;2022-09-09T08:02:44;15.38;;;6.32;;
65230;SDS011;51813;40.666;16.602;2022-09-09T08:05:11;14.07;;;6.43;;
65230;SDS011;51813;40.666;16.602;2022-09-09T08:07:37;14.63;;;5.90;;
65230;SDS011;51813;40.666;16.602;2022-09-09T08:10:03;11.88;;;4.97;;
65230;SDS011;51813;40.666;16.602;2022-09-09T08:12:29;12.02;;;4.25;;
65230;SDS011;51813;40.666;16.602;2022-09-09T08:14:55;16.15;;;5.90;;
65230;SDS011;51813;40.666;16.602;2022-09-09T08:17:21;15.63;;;5.82;;
65230;SDS011;51813;40.666;16.602;2022-09-09T08:19:46;14.80;;;4.72;;
65230;SDS011;51813;40.666;16.602;2022-09-09T08:22:12;12.65;;;5.13;;
65230;SDS011;51813;40.666;16.602;2022-09-09T08:24:38;11.52;;;5.15;;
65230;SDS011;51813;40.666;16.602;2022-09-09T08:27:04;13.10;;;4.82;;
65230;SDS011;51813;40.666;16.602;2022-09-09T08:29:30;19.92;;;5.60;;
65230;SDS011;51813;40.666;16.602;2022-09-09T08:31:56;11.65;;;4.75;;
65230;SDS011;51813;40.666;16.602;2022-09-09T08:34:23;10.68;;;4.70;;
65230;SDS011;51813;40.666;16.602;2022-09-09T08:36:52;12.23;;;4.95;;
65230;SDS011;51813;40.666;16.602;2022-09-09T08:39:19;22.05;;;6.00;;
65230;SDS011;51813;40.666;16.602;2022-09-09T08:55:38;16.58;;;5.15;;
65230;SDS011;51813;40.666;16.602;2022-09-09T08:58:17;15.68;;;4.95;;
65230;SDS011;51813;40.666;16.602;2022-09-09T09:09:08;12.70;;;5.05;;
65230;SDS011;51813;40.666;16.602;2022-09-09T09:11:48;12.57;;;5.18;;
65230;SDS011;51813;40.666;16.602;2022-09-09T09:14:26;11.50;;;5.80;;
65230;SDS011;51813;40.666;16.602;2022-09-09T09:16:59;19.90;;;5.63;;
65230;SDS011;51813;40.666;16.602;2022-09-09T09:19:27;12.65;;;4.85;;
65230;SDS011;51813;40.666;16.602;2022-09-09T09:24:45;16.70;;;5.60;;
65230;SDS011;51813;40.666;16.602;2022-09-09T09:27:32;13.88;;;4.95;;
65230;SDS011;51813;40.666;16.602;2022-09-09T09:30:01;11.80;;;4.18;;
65230;SDS011;51813;40.666;16.602;2022-09-09T09:32:38;13.43;;;4.97;;
65230;SDS011;51813;40.666;16.602;2022-09-09T09:35:12;11.05;;;4.50;;
65230;SDS011;51813;40.666;16.602;2022-09-09T09:37:39;14.73;;;4.80;;
65230;SDS011;51813;40.666;16.602;2022-09-09T09:40:16;13.52;;;4.75;;
65230;SDS011;51813;40.666;16.602;2022-09-09T09:42:54;11.18;;;4.07;;
65230;SDS011;51813;40.666;16.602;2022-09-09T09:45:35;15.25;;;4.57;;
65230;SDS011;51813;40.666;16.602;2022-09-09T09:48:09;11.43;;;3.78;;
65230;SDS011;51813;40.666;16.602;2022-09-09T09:50:47;14.45;;;4.28;;
65230;SDS011;51813;40.666;16.602;2022-09-09T09:53:21;18.67;;;4.47;;
65230;SDS011;51813;40.666;16.602;2022-09-09T09:56:01;13.95;;;4.32;;
65230;SDS011;51813;40.666;16.602;2022-09-09T09:58:32;16.13;;;4.30;;
65230;SDS011;51813;40.666;16.602;2022-09-09T10:01:04;16.40;;;5.00;;
65230;SDS011;51813;40.666;16.602;2022-09-09T10:03:31;10.38;;;4.03;;
65230;SDS011;51813;40.666;16.602;2022-09-09T10:06:02;18.48;;;5.90;;
65230;SDS011;51813;40.666;16.602;2022-09-09T10:08:29;18.98;;;4.70;;
65230;SDS011;51813;40.666;16.602;2022-09-09T10:22:37;12.75;;;5.00;;
65230;SDS011;51813;40.666;16.602;2022-09-09T10:34:21;13.75;;;3.92;;
65230;SDS011;51813;40.666;16.602;2022-09-09T10:36:21;13.15;;;4.75;;
65230;SDS011;51813;40.666;16.602;2022-09-09T10:38:53;13.95;;;4.28;;
65230;SDS011;51813;40.666;16.602;2022-09-09T10:44:45;14.30;;;4.40;;
65230;SDS011;51813;40.666;16.602;2022-09-09T10:55:23;11.30;;;4.20;;
65230;SDS011;51813;40.666;16.602;2022-09-09T10:57:53;12.77;;;4.10;;
65230;SDS011;51813;40.666;16.602;2022-09-09T11:00:22;11.88;;;3.90;;
65230;SDS011;51813;40.666;16.602;2022-09-09T11:02:56;11.75;;;4.22;;
65230;SDS011;51813;40.666;16.602;2022-09-09T11:05:28;13.68;;;3.92;;
65230;SDS011;51813;40.666;16.602;2022-09-09T11:10:55;9.98;;;3.78;;
65230;SDS011;51813;40.666;16.602;2022-09-09T11:18:46;12.45;;;3.85;;
65230;SDS011;51813;40.666;16.602;2022-09-09T11:21:16;15.10;;;4.20;;
65230;SDS011;51813;40.666;16.602;2022-09-09T11:23:49;12.65;;;4.38;;
65230;SDS011;51813;40.666;16.602;2022-09-09T11:26:29;15.88;;;5.07;;
65230;SDS011;51813;40.666;16.602;2022-09-09T11:40:33;12.98;;;4.28;;
65230;SDS011;51813;40.666;16.602;2022-09-09T11:43:08;10.65;;;4.00;;
65230;SDS011;51813;40.666;16.602;2022-09-09T11:45:50;13.65;;;4.60;;
65230;SDS011;51813;40.666;16.602;2022-09-09T11:48:26;12.30;;;4.82;;
65230;SDS011;51813;40.666;16.602;2022-09-09T11:50:58;12.55;;;4.50;;
65230;SDS011;51813;40.666;16.602;2022-09-09T11:53:30;12.18;;;4.82;;
65230;SDS011;51813;40.666;16.602;2022-09-09T11:56:07;9.15;;;4.72;;
65230;SDS011;51813;40.666;16.602;2022-09-09T11:58:44;14.30;;;5.20;;
65230;SDS011;51813;40.666;16.602;2022-09-09T12:04:10;12.13;;;4.50;;
65230;SDS011;51813;40.666;16.602;2022-09-09T12:06:44;12.85;;;4.53;;
65230;SDS011;51813;40.666;16.602;2022-09-09T12:09:18;9.65;;;4.30;;
65230;SDS011;51813;40.666;16.602;2022-09-09T12:12:07;9.25;;;4.50;;
65230;SDS011;51813;40.666;16.602;2022-09-09T12:17:45;9.95;;;4.30;;
65230;SDS011;51813;40.666;16.602;2022-09-09T12:28:48;12.75;;;4.80;;
65230;SDS011;51813;40.666;16.602;2022-09-09T12:37:50;13.35;;;4.75;;
65230;SDS011;51813;40.666;16.602;2022-09-09T12:39:59;10.25;;;5.00;;
65230;SDS011;51813;40.666;16.602;2022-09-09T12:42:28;11.82;;;5.05;;
65230;SDS011;51813;40.666;16.602;2022-09-09T12:44:58;11.32;;;5.10;;
65230;SDS011;51813;40.666;16.602;2022-09-09T12:47:26;11.38;;;4.70;;
65230;SDS011;51813;40.666;16.602;2022-09-09T12:50:02;15.82;;;5.25;;
65230;SDS011;51813;40.666;16.602;2022-09-09T12:54:58;12.25;;;4.85;;
65230;SDS011;51813;40.666;16.602;2022-09-09T12:57:25;11.07;;;5.10;;
65230;SDS011;51813;40.666;16.602;2022-09-09T13:00:03;12.63;;;4.93;;
65230;SDS011;51813;40.666;16.602;2022-09-09T13:02:46;8.32;;;4.00;;
65230;SDS011;51813;40.666;16.602;2022-09-09T13:07:47;12.00;;;4.82;;
65230;SDS011;51813;40.666;16.602;2022-09-09T13:10:14;9.88;;;4.55;;
65230;SDS011;51813;40.666;16.602;2022-09-09T13:12:46;13.25;;;5.07;;
65230;SDS011;51813;40.666;16.602;2022-09-09T13:15:19;13.55;;;5.07;;
65230;SDS011;51813;40.666;16.602;2022-09-09T13:17:50;9.32;;;4.50;;
65230;SDS011;51813;40.666;16.602;2022-09-09T13:20:19;8.82;;;4.38;;
65230;SDS011;51813;40.666;16.602;2022-09-09T13:22:46;11.02;;;4.40;;
65230;SDS011;51813;40.666;16.602;2022-09-09T13:25:19;9.40;;;4.53;;
65230;SDS011;51813;40.666;16.602;2022-09-09T13:30:30;10.05;;;4.20;;
65230;SDS011;51813;40.666;16.602;2022-09-09T13:35:45;13.45;;;4.30;;
65230;SDS011;51813;40.666;16.602;2022-09-09T13:38:14;12.68;;;4.30;;
65230;SDS011;51813;40.666;16.602;2022-09-09T13:40:51;8.43;;;3.80;;
65230;SDS011;51813;40.666;16.602;2022-09-09T13:43:22;10.57;;;4.50;;
65230;SDS011;51813;40.666;16.602;2022-09-09T13:45:53;7.75;;;3.85;;
65230;SDS011;51813;40.666;16.602;2022-09-09T13:48:21;13.02;;;4.32;;
65230;SDS011;51813;40.666;16.602;2022-09-09T13:51:22;13.57;;;4.40;;
65230;SDS011;51813;40.666;16.602;2022-09-09T13:54:00;10.73;;;4.15;;
65230;SDS011;51813;40.666;16.602;2022-09-09T13:56:26;10.68;;;4.40;;
65230;SDS011;51813;40.666;16.602;2022-09-09T13:58:52;9.80;;;4.18;;
65230;SDS011;51813;40.666;16.602;2022-09-09T14:01:17;11.02;;;4.18;;
65230;SDS011;51813;40.666;16.602;2022-09-09T14:03:43;13.48;;;4.45;;
65230;SDS011;51813;40.666;16.602;2022-09-09T14:06:12;14.70;;;4.47;;
65230;SDS011;51813;40.666;16.602;2022-09-09T14:08:38;16.80;;;4.93;;
65230;SDS011;51813;40.666;16.602;2022-09-09T14:11:05;13.65;;;3.85;;
65230;SDS011;51813;40.666;16.602;2022-09-09T14:13:33;13.25;;;4.30;;
65230;SDS011;51813;40.666;16.602;2022-09-09T14:15:59;9.65;;;3.83;;
65230;SDS011;51813;40.666;16.602;2022-09-09T14:18:25;11.60;;;4.38;;
65230;SDS011;51813;40.666;16.602;2022-09-09T14:20:51;11.82;;;3.97;;
65230;SDS011;51813;40.666;16.602;2022-09-09T14:23:16;14.90;;;4.70;;
65230;SDS011;51813;40.666;16.602;2022-09-09T14:25:45;12.57;;;4.30;;
65230;SDS011;51813;40.666;16.602;2022-09-09T14:28:11;10.05;;;4.18;;
65230;SDS011;51813;40.666;16.602;2022-09-09T14:30:39;11.73;;;4.30;;
65230;SDS011;51813;40.666;16.602;2022-09-09T14:33:08;10.60;;;4.25;;
65230;SDS011;51813;40.666;16.602;2022-09-09T14:35:38;15.38;;;4.97;;
65230;SDS011;51813;40.666;16.602;2022-09-09T14:38:06;13.23;;;4.82;;
65230;SDS011;51813;40.666;16.602;2022-09-09T14:40:33;12.65;;;4.60;;
65230;SDS011;51813;40.666;16.602;2022-09-09T14:43:00;11.07;;;4.47;;
65230;SDS011;51813;40.666;16.602;2022-09-09T14:45:27;11.15;;;4.65;;
65230;SDS011;51813;40.666;16.602;2022-09-09T14:47:53;9.23;;;4.10;;
65230;SDS011;51813;40.666;16.602;2022-09-09T14:50:19;12.55;;;4.57;;
65230;SDS011;51813;40.666;16.602;2022-09-09T14:52:46;10.50;;;4.63;;
65230;SDS011;51813;40.666;16.602;2022-09-09T14:55:12;11.52;;;4.25;;
65230;SDS011;51813;40.666;16.602;2022-09-09T14:57:38;15.10;;;4.60;;
65230;SDS011;51813;40.666;16.602;2022-09-09T15:00:05;17.08;;;4.57;;
65230;SDS011;51813;40.666;16.602;2022-09-09T15:02:33;12.40;;;5.60;;
65230;SDS011;51813;40.666;16.602;2022-09-09T15:04:58;9.90;;;4.60;;
65230;SDS011;51813;40.666;16.602;2022-09-09T15:07:24;13.73;;;4.97;;
65230;SDS011;51813;40.666;16.602;2022-09-09T15:09:51;13.18;;;4.78;;
65230;SDS011;51813;40.666;16.602;2022-09-09T15:12:18;16.38;;;4.70;;
65230;SDS011;51813;40.666;16.602;2022-09-09T15:14:44;9.48;;;4.13;;
65230;SDS011;51813;40.666;16.602;2022-09-09T15:17:10;13.48;;;5.05;;
65230;SDS011;51813;40.666;16.602;2022-09-09T15:19:37;10.20;;;4.10;;
65230;SDS011;51813;40.666;16.602;2022-09-09T15:22:03;13.07;;;4.47;;
65230;SDS011;51813;40.666;16.602;2022-09-09T15:24:30;29.05;;;16.33;;
65230;SDS011;51813;40.666;16.602;2022-09-09T15:26:57;13.52;;;6.03;;
65230;SDS011;51813;40.666;16.602;2022-09-09T15:29:23;12.20;;;5.25;;
65230;SDS011;51813;40.666;16.602;2022-09-09T15:31:49;12.32;;;5.57;;
65230;SDS011;51813;40.666;16.602;2022-09-09T15:34:15;13.13;;;5.35;;
65230;SDS011;51813;40.666;16.602;2022-09-09T15:36:44;23.58;;;5.72;;
65230;SDS011;51813;40.666;16.602;2022-09-09T15:39:14;18.02;;;4.10;;
65230;SDS011;51813;40.666;16.602;2022-09-09T15:41:41;12.23;;;4.47;;
65230;SDS011;51813;40.666;16.602;2022-09-09T15:46:50;11.23;;;4.95;;
65230;SDS011;51813;40.666;16.602;2022-09-09T15:49:22;13.52;;;4.80;;
65230;SDS011;51813;40.666;16.602;2022-09-09T15:51:53;9.02;;;4.28;;
65230;SDS011;51813;40.666;16.602;2022-09-09T15:54:21;10.50;;;4.72;;
65230;SDS011;51813;40.666;16.602;2022-09-09T15:56:53;9.15;;;4.35;;
65230;SDS011;51813;40.666;16.602;2022-09-09T15:59:23;10.63;;;3.90;;
65230;SDS011;51813;40.666;16.602;2022-09-09T16:01:50;13.48;;;4.05;;
65230;SDS011;51813;40.666;16.602;2022-09-09T16:04:16;8.60;;;4.07;;
65230;SDS011;51813;40.666;16.602;2022-09-09T16:06:48;10.20;;;3.88;;
65230;SDS011;51813;40.666;16.602;2022-09-09T16:09:18;7.80;;;3.77;;
65230;SDS011;51813;40.666;16.602;2022-09-09T16:11:44;10.10;;;3.78;;
65230;SDS011;51813;40.666;16.602;2022-09-09T16:14:09;11.02;;;4.03;;
65230;SDS011;51813;40.666;16.602;2022-09-09T16:16:36;10.45;;;3.80;;
65230;SDS011;51813;40.666;16.602;2022-09-09T16:19:03;10.80;;;3.88;;
65230;SDS011;51813;40.666;16.602;2022-09-09T16:21:32;9.13;;;3.97;;
65230;SDS011;51813;40.666;16.602;2022-09-09T16:24:04;28.85;;;5.47;;
65230;SDS011;51813;40.666;16.602;2022-09-09T16:26:32;9.48;;;4.10;;
65230;SDS011;51813;40.666;16.602;2022-09-09T16:29:00;9.13;;;3.90;;
65230;SDS011;51813;40.666;16.602;2022-09-09T16:31:27;12.32;;;3.90;;
65230;SDS011;51813;40.666;16.602;2022-09-09T16:33:54;11.30;;;3.85;;
65230;SDS011;51813;40.666;16.602;2022-09-09T16:36:21;12.65;;;4.30;;
65230;SDS011;51813;40.666;16.602;2022-09-09T16:38:52;16.27;;;4.35;;
65230;SDS011;51813;40.666;16.602;2022-09-09T16:41:19;7.15;;;2.95;;
65230;SDS011;51813;40.666;16.602;2022-09-09T16:43:45;8.20;;;3.40;;
65230;SDS011;51813;40.666;16.602;2022-09-09T16:46:12;10.00;;;3.40;;
65230;SDS011;51813;40.666;16.602;2022-09-09T16:48:40;10.18;;;3.50;;
65230;SDS011;51813;40.666;16.602;2022-09-09T16:51:07;8.77;;;3.42;;
65230;SDS011;51813;40.666;16.602;2022-09-09T16:53:36;9.02;;;3.17;;
65230;SDS011;51813;40.666;16.602;2022-09-09T16:56:08;10.32;;;3.00;;
65230;SDS011;51813;40.666;16.602;2022-09-09T16:58:53;10.07;;;3.00;;
65230;SDS011;51813;40.666;16.602;2022-09-09T17:01:20;8.20;;;2.90;;
65230;SDS011;51813;40.666;16.602;2022-09-09T17:03:53;12.25;;;5.35;;
65230;SDS011;51813;40.666;16.602;2022-09-09T17:06:20;129.63;;;28.55;;
65230;SDS011;51813;40.666;16.602;2022-09-09T17:08:46;109.88;;;24.27;;
65230;SDS011;51813;40.666;16.602;2022-09-09T17:11:14;125.60;;;29.50;;
65230;SDS011;51813;40.666;16.602;2022-09-09T17:13:43;107.93;;;24.52;;
65230;SDS011;51813;40.666;16.602;2022-09-09T17:16:10;98.75;;;26.02;;
65230;SDS011;51813;40.666;16.602;2022-09-09T17:18:37;65.65;;;17.60;;
65230;SDS011;51813;40.666;16.602;2022-09-09T17:21:04;92.20;;;21.35;;
65230;SDS011;51813;40.666;16.602;2022-09-09T17:23:32;74.95;;;16.77;;
65230;SDS011;51813;40.666;16.602;2022-09-09T17:25:59;73.82;;;20.77;;
65230;SDS011;51813;40.666;16.602;2022-09-09T17:28:25;64.03;;;16.40;;
65230;SDS011;51813;40.666;16.602;2022-09-09T17:30:56;71.82;;;19.58;;
65230;SDS011;51813;40.666;16.602;2022-09-09T17:33:30;69.95;;;17.88;;
65230;SDS011;51813;40.666;16.602;2022-09-09T17:35:57;70.70;;;19.20;;
65230;SDS011;51813;40.666;16.602;2022-09-09T17:38:24;53.03;;;15.68;;
65230;SDS011;51813;40.666;16.602;2022-09-09T17:41:00;54.78;;;15.13;;
65230;SDS011;51813;40.666;16.602;2022-09-09T17:43:31;41.88;;;12.80;;
65230;SDS011;51813;40.666;16.602;2022-09-09T17:46:10;47.40;;;15.50;;
65230;SDS011;51813;40.666;16.602;2022-09-09T17:48:38;50.15;;;15.20;;
65230;SDS011;51813;40.666;16.602;2022-09-09T17:51:06;42.25;;;14.07;;
65230;SDS011;51813;40.666;16.602;2022-09-09T17:53:37;47.40;;;13.88;;